Hidden Valley, Valles Caldera, New Mexico Weather observations

Data are for 10 minute period ending at time listed.
 Day   Time   Solar   Ave.   Ave.  Ave.  Vector  Max.   Baro.   Total    
  of    of     Rad.   Air    Rel.  Wind   Wind   Wind  Press.  Precip.   
Year   Day            Temp.  Hum.  Speed  Dir.   Gust                    
2016   (MST)  Kw/m2    F      %     mph   deg.    mph    mb.     in.     
-------------------------------------------------------------------------
 270   17:30   0.02   51.5    42    1.4   191     3.8   753.7    0.00 
 270   17:40   0.01   50.9    43    2.0   187     4.7   753.7    0.00 
 270   17:50   0.01   51.0    43    2.9   189     6.4   753.8    0.00 
 270   18:00   0.00   50.1    44    2.1   196     4.2   753.8    0.00 
 270   18:10   0.00   49.6    45    1.5   196     4.0   753.9    0.00 
 270   18:20   0.00   47.0    51    1.2   217     2.3   753.8    0.00 
 270   18:30   0.00   44.7    56    0.5   253     1.3   753.8    0.00 
 270   18:40   0.00   42.5    60    0.8   102     1.3   753.7    0.00 
 270   18:50   0.00   38.5    69    0.6    20     1.2   753.8    0.00 
 270   19:00   0.00   37.0    73    1.0   132     2.1   753.8    0.00 
 270   19:10   0.00   35.1    79    0.5   301     1.0   754.0    0.00 
 270   19:20   1.59   34.5    80    0.8   164     1.4   754.0    0.00 
 270   19:30   2.92   32.5    81    1.0    22     2.4   754.1    0.00 
 270   19:40   3.97   30.1    89    0.4   350     1.2   754.2    0.00 
 270   19:50   4.33   30.2    90    0.3    82     1.1   754.3    0.00 
 270   20:00   4.64   29.9    90    0.5   102     1.8   754.3    0.00 
 270   20:10   3.89   30.0    91    0.7   188     1.6   754.3    0.00 
 270   20:20   3.90   29.3    89    0.8   264     1.5   754.3    0.00 
 270   20:30   4.78   30.1    90    0.7    80     1.9   754.3    0.00 
 270   20:40   5.15   29.3    90    0.5   309     1.3   754.4    0.00 
 270   20:50   4.81   28.5    90    0.3   150     1.1   754.4    0.00 
 270   21:00   4.58   27.7    91    0.5   344     1.2   754.5    0.00 
 270   21:10   4.62   26.4    93    0.5     1     1.3   754.4    0.00 
 270   21:20   4.63   26.1    95    0.4     7     1.2   754.5    0.00 
 270   21:30   4.36   24.9    94    0.4   188     1.6   754.5    0.00 
 270   21:40   3.90   24.5    95    0.2   176     1.1   754.5    0.00 
 270   21:50   4.00   24.0    96    0.1   103     0.8   754.4    0.00 
 270   22:00   4.12   23.2    95    0.9   355     1.4   754.4    0.00 
 270   22:10   3.94   23.3    98    0.3   308     1.0   754.4    0.00 
 270   22:20   4.27   23.2    98    0.0   314     0.4   754.4    0.00 
 270   22:30   4.77   23.2    99    0.1   294     0.5   754.5    0.00 
 270   22:40   4.98   23.4   100    0.3   263     0.8   754.6    0.00 
 270   22:50   4.87   22.9    99    0.1   124     0.6   754.6    0.00 
 270   23:00   5.14   22.2    98    0.0     0     0.0   754.6    0.00 
 270   23:10   5.22   21.8    98    0.1   124     0.4   754.5    0.00 
 270   23:20   4.24   21.4    98    0.3    21     1.0   754.5    0.00 
 270   23:30   3.06   19.9    96    0.4     4     0.8   754.5    0.00 
 270   23:40   3.30   20.4    99    0.1   348     0.6   754.5    0.00 
 270   23:50   3.20   20.3    99    0.4    54     0.7   754.5    0.00 
 271    0:00   3.75   20.5    99    0.4     7     1.2   754.5    0.00 
 271    0:10   4.52   20.9    99    0.4   319     1.2   754.5    0.00 
 271    0:20   4.97   20.0    97    0.0   134     0.3   754.5    0.00 
 271    0:30   5.22   19.8    98    0.0     0     0.0   754.4    0.00 
 271    0:40   5.21   19.7    98    0.0   245     0.2   754.4    0.00 
 271    0:50   5.12   19.7    98    0.3   327     0.8   754.4    0.00 
 271    1:00   5.16   18.5    96    0.7    45     0.9   754.4    0.00 
 271    1:10   5.19   18.2    97    0.0     0     0.0   754.3    0.00 
 271    1:20   5.21   18.8    98    0.1   122     0.6   754.3    0.00 
 271    1:30   5.17   18.1    96    0.1   122     0.6   754.3    0.00 
 271    1:40   5.11   17.9    96    0.6    50     1.0   754.3    0.00 
 271    1:50   5.12   17.2    96    0.3    70     1.0   754.2    0.00 
 271    2:00   5.17   18.5    98    0.7   313     1.3   754.2    0.00 
 271    2:10   5.23   18.0    96    0.0   154     0.4   754.2    0.00 
 271    2:20   5.28   17.9    96    0.1   294     0.4   754.1    0.00 
 271    2:30   5.26   17.3    96    0.2   307     0.9   754.0    0.00 
 271    2:40   5.25   17.1    96    0.2   333     0.9   753.8    0.00 
 271    2:50   5.22   17.4    97    0.0   332     0.3   753.8    0.00 
 271    3:00   5.21   17.3    96    0.1   282     0.7   753.7    0.00 
 271    3:10   5.24   16.6    95    0.1   108     0.6   753.7    0.00 
 271    3:20   5.26   17.1    97    0.4   251     0.7   753.6    0.00 
 271    3:30   5.23   16.5    95    0.1    60     0.6   753.6    0.00 
 271    3:40   5.20   16.0    95    0.4   356     1.6   753.6    0.00 
 271    3:50   5.04   15.9    95    0.4   299     1.5   753.6    0.00 
 271    4:00   5.04   15.8    96    0.1   157     0.7   753.5    0.00 
 271    4:10   5.06   15.5    94    0.3     6     0.9   753.4    0.00 
 271    4:20   4.64   15.3    95    0.1   257     0.7   753.4    0.00 
 271    4:30   4.85   14.5    94    0.6   352     1.3   753.3    0.00 
 271    4:40   5.09   14.1    94    0.5    35     1.2   753.3    0.00 
 271    4:50   5.06   13.9    95    0.2   202     1.1   753.3    0.00 
 271    5:00   2.80   13.7    94    0.3    52     0.9   753.3    0.00 
 271    5:10   2.77   13.6    94    0.6   347     1.3   753.4    0.00 
 271    5:20   2.73   13.3    94    0.2   279     1.1   753.4    0.00 
 271    5:30   2.77   13.1    94    0.5   166     1.2   753.4    0.00 
 271    5:40   2.92   13.7    95    0.3   313     1.0   753.5    0.00 
 271    5:50   2.83   12.9    93    0.2     9     0.7   753.5    0.00 
 271    6:00   3.21   13.4    95    0.6   292     1.6   753.5    0.00 
 271    6:10   3.53   13.5    94    0.1   177     0.7   753.5    0.00 
 271    6:20   3.68   13.2    93    0.5   352     1.0   753.5    0.00 
 271    6:30   4.00   13.5    94    0.1    28     0.6   753.5    0.00 
 271    6:40   4.16   14.8    95    0.2   243     0.8   753.5    0.00 
 271    6:50   3.93   18.8    95    0.0   159     0.4   753.4    0.00 
 271    7:00   3.57   22.1    92    0.0   108     0.3   753.5    0.00 
 271    7:10   -8190.00   24.2    90    0.3    20     1.2   753.4    0.00 
 271    7:20   -8190.00   26.4    89    0.0     0     0.0   753.4    0.00 
 271    7:30   -8190.00   29.0    88    0.0     0     0.0   753.5    0.00 
 271    7:40   -8190.00   31.8    85    0.2   107     0.9   753.5    0.00 
 271    7:50   -8190.00   34.6    81    0.1   353     1.1   753.5    0.00 
 271    8:00   1.51   35.7    80    0.5     2     1.4   753.4    0.00 
 271    8:10   1.82   38.9    75    0.3    42     1.2   753.4    0.00 
 271    8:20   2.69   41.1    72    0.7    73     1.6   753.4    0.00 
 271    8:30   1.10   43.6    68    0.7    48     1.4   753.4    0.00 
 271    8:40   0.73   46.3    65    0.7    36     1.4   753.4    0.00 
 271    8:50   0.55   49.2    61    0.7    50     2.0   753.3    0.00 
 271    9:00   -8190.00   52.5    54    0.9    50     2.4   753.3    0.00 
 271    9:10   -8190.00   55.1    49    0.6   104     1.7   753.3    0.00 
 271    9:20   -8190.00   56.4    40    0.6   275     1.4   753.3    0.00 
 271    9:30   -8190.00   58.4    32    0.7   160     2.2   753.3    0.00 
 271    9:40   -8190.00   58.4    30    2.3   157     4.5   753.3    0.00 
 271    9:50   -8190.00   58.2    32    2.4   192     4.7   753.2    0.00 
 271   10:00   -8190.00   58.9    31    2.4   165     5.1   753.2    0.00 
 271   10:10   -8190.00   59.2    29    1.0   104     3.1   753.1    0.00 
 271   10:20   0.77   60.5    28    1.3   131     3.1   752.9    0.00 
 271   10:30   0.79   60.2    29    1.5   318     2.8   752.8    0.00 
 271   10:40   0.80   60.7    28    2.2   124     6.1   752.8    0.00 
 271   10:50   0.81   60.3    27    3.3   164     5.6   752.8    0.00 
 271   11:00   0.83   61.1    27    2.0   183     4.7   752.8    0.00 
 271   11:10   0.84   61.5    26    2.2   171     4.9   752.7    0.00 
 271   11:20   0.85   61.4    26    2.0   159     4.6   752.6    0.00 
 271   11:30   0.86   62.3    22    1.1   132     2.0   681.0    0.00 
 271   11:40   0.82   61.9    26    2.0   149     4.7   752.5    0.00 
 271   11:50   0.98   62.7    25    1.8   125     5.4   752.3    0.05 
 271   12:00   0.90   62.8    24    2.6   108     5.7   752.2    0.00 
 271   12:10   0.69   62.2    24    3.1   134     5.6   752.1    0.18 
 271   12:20   0.77   62.3    24    3.1   144     6.0   752.1    0.14 
 271   12:30   0.64   62.5    26    3.3   148     5.3   752.0    0.00 
 271   12:40   0.91   63.5    25    2.4   150     4.4   751.9    0.00 
 271   12:50   0.84   64.3    23    1.8   172     4.0   751.7    0.00 
 271   13:00   0.83   64.4    24    2.8   128     5.9   751.6    0.03 
 271   13:10   0.81   64.3    24    2.8   136     4.4   751.5    0.90 
 271   13:20   0.77   64.5    24    3.0   144     5.0   706.0    1.50 
 271   13:30   0.78   64.4    24    2.3   145     4.5   751.2    1.22 
 271   13:40   100.00  99999.0   99999  99999.0   99999   99999.0   99999.0   99999.00 
 271   13:50   100.00  99999.0   99999  99999.0   99999   99999.0   99999.0   99999.00 
 271   14:00   100.00  99999.0   99999  99999.0   99999   99999.0   99999.0   99999.00 
 271   14:10   100.00  99999.0   99999  99999.0   99999   99999.0   99999.0   99999.00 
 271   14:20   100.00  99999.0   99999  99999.0   99999   99999.0   99999.0   99999.00 
 271   14:30   0.67   64.9    21    2.6   154     4.2   751.0    0.00 
 271   14:40   0.65   65.2    20    2.9   186     6.5   751.0    0.00 
 271   14:50   0.63   65.3    20    3.3   143     5.9   750.9    0.00 
 271   15:00   0.23   62.6    21    3.5   140     5.8   750.8    0.00 
 271   15:10   0.57   64.0    20    1.9   123     4.7   750.7    0.00 
 271   15:20   0.54   65.4    20    3.0   155     4.6   750.7    0.00 
 271   15:30   0.50   64.9    19    3.6   148     6.0   750.7    0.00 
 271   15:40   0.46   64.9    19    2.7   187     4.3   750.7    0.00 
 271   15:50   0.43   64.8    18    3.1   169     5.4   750.7    0.00 
 271   16:00   0.40   64.5    18    2.9   182     4.9   750.6    0.00 
 271   16:10   0.37   64.7    19    2.6   199     5.1   750.7    0.00 
 271   16:20   0.31   64.1    18    2.3   179     4.2   750.6    0.08 
 271   16:30   0.24   63.7    19    2.3   200     4.1   750.6    0.00 
 271   16:40   0.18   62.3    19    1.8   238     3.1   750.7    0.00 
 271   16:50   0.23   62.5    20    2.3   206     4.5   750.7    0.00 
 271   17:00   0.19   61.2    22    1.6   226     3.0   750.6    0.00 
 271   17:10   0.04   56.7    27    1.6   243     2.7   750.7    0.00 
 271   17:20   0.02   54.3    30    1.7   244     2.7   750.7    0.00 

Return to Hidden Valley, Valles Caldera graphs page.


Western Regional Climate Center,wrcc@dri.edu